sensor_id;sensor_type;location;lat;lon;timestamp;temperature;humidity
27368;DHT22;14839;48.106;11.618;2024-01-30T05:02:11;-2.20;94.60
27368;DHT22;14839;48.106;11.618;2024-01-30T05:04:37;-2.30;94.60
27368;DHT22;14839;48.106;11.618;2024-01-30T05:07:02;-2.30;94.60
27368;DHT22;14839;48.106;11.618;2024-01-30T05:09:28;-2.30;94.60
27368;DHT22;14839;48.106;11.618;2024-01-30T05:11:54;-2.30;94.60
27368;DHT22;14839;48.106;11.618;2024-01-30T05:14:19;-2.30;94.60
27368;DHT22;14839;48.106;11.618;2024-01-30T05:16:45;-2.30;94.60
27368;DHT22;14839;48.106;11.618;2024-01-30T05:19:13;-2.30;94.60
27368;DHT22;14839;48.106;11.618;2024-01-30T05:21:39;-2.30;94.60
27368;DHT22;14839;48.106;11.618;2024-01-30T05:24:05;-2.30;94.60
27368;DHT22;14839;48.106;11.618;2024-01-30T05:26:31;-2.30;94.60
27368;DHT22;14839;48.106;11.618;2024-01-30T05:28:57;-2.30;94.60
27368;DHT22;14839;48.106;11.618;2024-01-30T05:31:22;-2.30;94.60
27368;DHT22;14839;48.106;11.618;2024-01-30T05:33:48;-2.30;94.60
27368;DHT22;14839;48.106;11.618;2024-01-30T05:36:14;-2.30;94.60
27368;DHT22;14839;48.106;11.618;2024-01-30T05:38:40;-2.30;94.60
27368;DHT22;14839;48.106;11.618;2024-01-30T05:41:05;-2.30;94.60
27368;DHT22;14839;48.106;11.618;2024-01-30T05:43:31;-2.30;94.60
27368;DHT22;14839;48.106;11.618;2024-01-30T05:45:57;-2.30;94.60
27368;DHT22;14839;48.106;11.618;2024-01-30T05:48:22;-2.30;94.60
27368;DHT22;14839;48.106;11.618;2024-01-30T05:50:48;-2.30;94.60
27368;DHT22;14839;48.106;11.618;2024-01-30T05:53:13;-2.30;94.60
27368;DHT22;14839;48.106;11.618;2024-01-30T05:55:39;-2.30;94.60
27368;DHT22;14839;48.106;11.618;2024-01-30T05:58:04;-2.30;94.60
27368;DHT22;14839;48.106;11.618;2024-01-30T06:00:30;-2.30;94.60
27368;DHT22;14839;48.106;11.618;2024-01-30T06:02:55;-2.40;94.60
27368;DHT22;14839;48.106;11.618;2024-01-30T06:05:21;-2.40;94.60
27368;DHT22;14839;48.106;11.618;2024-01-30T06:07:46;-2.30;94.60
27368;DHT22;14839;48.106;11.618;2024-01-30T06:10:12;-2.30;94.60
27368;DHT22;14839;48.106;11.618;2024-01-30T06:12:37;-2.30;94.60
27368;DHT22;14839;48.106;11.618;2024-01-30T06:15:04;-2.30;94.60
27368;DHT22;14839;48.106;11.618;2024-01-30T06:17:29;-2.30;94.60
27368;DHT22;14839;48.106;11.618;2024-01-30T06:19:57;-2.30;94.60
27368;DHT22;14839;48.106;11.618;2024-01-30T06:22:23;-2.30;94.60
27368;DHT22;14839;48.106;11.618;2024-01-30T06:24:48;-2.30;94.60
27368;DHT22;14839;48.106;11.618;2024-01-30T06:27:15;-2.30;94.60
27368;DHT22;14839;48.106;11.618;2024-01-30T06:29:42;-2.40;94.60
27368;DHT22;14839;48.106;11.618;2024-01-30T06:32:08;-2.40;94.60
27368;DHT22;14839;48.106;11.618;2024-01-30T06:34:33;-2.30;94.60
27368;DHT22;14839;48.106;11.618;2024-01-30T06:36:59;-2.30;94.60
27368;DHT22;14839;48.106;11.618;2024-01-30T06:39:25;-2.30;94.60
27368;DHT22;14839;48.106;11.618;2024-01-30T06:41:51;-2.20;94.60
27368;DHT22;14839;48.106;11.618;2024-01-30T06:44:17;-2.20;94.60
27368;DHT22;14839;48.106;11.618;2024-01-30T06:46:45;-2.20;94.60
27368;DHT22;14839;48.106;11.618;2024-01-30T06:49:11;-2.20;94.60
27368;DHT22;14839;48.106;11.618;2024-01-30T06:51:36;-2.20;94.60
27368;DHT22;14839;48.106;11.618;2024-01-30T06:54:02;-2.10;94.60
27368;DHT22;14839;48.106;11.618;2024-01-30T06:56:28;-2.10;94.60
27368;DHT22;14839;48.106;11.618;2024-01-30T06:58:53;-2.10;94.60
27368;DHT22;14839;48.106;11.618;2024-01-30T07:01:19;-2.00;94.60
27368;DHT22;14839;48.106;11.618;2024-01-30T07:03:45;-2.00;94.60
27368;DHT22;14839;48.106;11.618;2024-01-30T07:06:10;-1.90;94.60
27368;DHT22;14839;48.106;11.618;2024-01-30T07:08:37;-1.80;94.60
27368;DHT22;14839;48.106;11.618;2024-01-30T07:11:08;-1.80;94.60
27368;DHT22;14839;48.106;11.618;2024-01-30T07:13:34;-1.60;94.60
27368;DHT22;14839;48.106;11.618;2024-01-30T07:16:00;-1.60;94.60
27368;DHT22;14839;48.106;11.618;2024-01-30T07:18:26;-1.40;94.60
27368;DHT22;14839;48.106;11.618;2024-01-30T07:20:51;-1.40;94.60
27368;DHT22;14839;48.106;11.618;2024-01-30T07:23:17;-1.30;94.60
27368;DHT22;14839;48.106;11.618;2024-01-30T07:25:46;-1.20;94.60
27368;DHT22;14839;48.106;11.618;2024-01-30T07:28:14;-1.20;94.60
27368;DHT22;14839;48.106;11.618;2024-01-30T07:30:42;-1.10;94.60
27368;DHT22;14839;48.106;11.618;2024-01-30T07:33:08;-1.00;94.60
27368;DHT22;14839;48.106;11.618;2024-01-30T07:35:34;-0.90;94.60
27368;DHT22;14839;48.106;11.618;2024-01-30T07:37:59;-0.80;94.60
27368;DHT22;14839;48.106;11.618;2024-01-30T07:40:25;-0.60;94.60
27368;DHT22;14839;48.106;11.618;2024-01-30T07:42:52;-0.60;94.60
27368;DHT22;14839;48.106;11.618;2024-01-30T07:45:18;-0.50;94.60
27368;DHT22;14839;48.106;11.618;2024-01-30T07:47:48;-0.40;94.60
27368;DHT22;14839;48.106;11.618;2024-01-30T07:50:14;-0.20;94.60
27368;DHT22;14839;48.106;11.618;2024-01-30T07:52:40;-0.10;94.60
27368;DHT22;14839;48.106;11.618;2024-01-30T07:55:06;0.00;94.60
27368;DHT22;14839;48.106;11.618;2024-01-30T07:57:33;0.20;94.60
27368;DHT22;14839;48.106;11.618;2024-01-30T07:59:59;0.40;94.60
27368;DHT22;14839;48.106;11.618;2024-01-30T08:02:25;0.70;94.60
27368;DHT22;14839;48.106;11.618;2024-01-30T08:04:51;1.10;94.60
27368;DHT22;14839;48.106;11.618;2024-01-30T08:07:16;1.60;94.60
27368;DHT22;14839;48.106;11.618;2024-01-30T08:09:43;2.10;94.60
27368;DHT22;14839;48.106;11.618;2024-01-30T08:12:09;2.60;94.60
27368;DHT22;14839;48.106;11.618;2024-01-30T08:14:34;3.10;94.00
27368;DHT22;14839;48.106;11.618;2024-01-30T08:17:00;3.70;92.50
27368;DHT22;14839;48.106;11.618;2024-01-30T08:19:25;4.00;90.20
27368;DHT22;14839;48.106;11.618;2024-01-30T08:21:51;4.40;89.50
27368;DHT22;14839;48.106;11.618;2024-01-30T08:24:17;4.60;85.70
27368;DHT22;14839;48.106;11.618;2024-01-30T08:26:42;4.80;85.70
27368;DHT22;14839;48.106;11.618;2024-01-30T08:29:08;5.00;85.30
27368;DHT22;14839;48.106;11.618;2024-01-30T08:31:34;5.20;85.00
27368;DHT22;14839;48.106;11.618;2024-01-30T08:33:59;5.40;83.60
27368;DHT22;14839;48.106;11.618;2024-01-30T08:36:25;5.50;83.00
27368;DHT22;14839;48.106;11.618;2024-01-30T08:38:51;5.70;82.70
27368;DHT22;14839;48.106;11.618;2024-01-30T08:41:16;5.80;81.50
27368;DHT22;14839;48.106;11.618;2024-01-30T08:43:42;5.90;82.90
27368;DHT22;14839;48.106;11.618;2024-01-30T08:46:07;6.20;82.70
27368;DHT22;14839;48.106;11.618;2024-01-30T08:48:33;6.60;80.80
27368;DHT22;14839;48.106;11.618;2024-01-30T08:50:58;6.60;78.10
27368;DHT22;14839;48.106;11.618;2024-01-30T08:53:24;6.70;79.00
27368;DHT22;14839;48.106;11.618;2024-01-30T08:55:50;6.80;79.10
27368;DHT22;14839;48.106;11.618;2024-01-30T08:58:16;6.80;76.90
27368;DHT22;14839;48.106;11.618;2024-01-30T09:00:43;7.30;77.20
27368;DHT22;14839;48.106;11.618;2024-01-30T09:03:09;7.70;76.30
27368;DHT22;14839;48.106;11.618;2024-01-30T09:05:34;7.90;75.20
27368;DHT22;14839;48.106;11.618;2024-01-30T09:08:00;8.00;72.50
27368;DHT22;14839;48.106;11.618;2024-01-30T09:10:26;8.60;71.90
27368;DHT22;14839;48.106;11.618;2024-01-30T09:12:52;8.80;70.90
27368;DHT22;14839;48.106;11.618;2024-01-30T09:15:18;9.30;71.80
27368;DHT22;14839;48.106;11.618;2024-01-30T09:17:44;9.50;70.30
27368;DHT22;14839;48.106;11.618;2024-01-30T09:20:10;9.60;68.20
27368;DHT22;14839;48.106;11.618;2024-01-30T09:22:36;9.40;69.70
27368;DHT22;14839;48.106;11.618;2024-01-30T09:25:01;9.40;68.80
27368;DHT22;14839;48.106;11.618;2024-01-30T09:27:27;9.80;68.90
27368;DHT22;14839;48.106;11.618;2024-01-30T09:29:52;10.10;67.70
27368;DHT22;14839;48.106;11.618;2024-01-30T09:32:18;10.20;65.20
27368;DHT22;14839;48.106;11.618;2024-01-30T09:34:44;10.40;65.80
27368;DHT22;14839;48.106;11.618;2024-01-30T09:37:09;10.60;63.50
27368;DHT22;14839;48.106;11.618;2024-01-30T09:39:35;10.60;62.50
27368;DHT22;14839;48.106;11.618;2024-01-30T09:42:18;10.60;62.60
27368;DHT22;14839;48.106;11.618;2024-01-30T09:44:47;11.00;61.30
27368;DHT22;14839;48.106;11.618;2024-01-30T09:47:16;11.10;64.00
27368;DHT22;14839;48.106;11.618;2024-01-30T09:49:43;11.50;64.30
27368;DHT22;14839;48.106;11.618;2024-01-30T09:52:09;11.50;60.00
27368;DHT22;14839;48.106;11.618;2024-01-30T09:54:36;11.70;58.80
27368;DHT22;14839;48.106;11.618;2024-01-30T09:57:03;11.70;60.50
27368;DHT22;14839;48.106;11.618;2024-01-30T09:59:29;12.00;58.90
27368;DHT22;14839;48.106;11.618;2024-01-30T10:01:55;12.40;57.20
27368;DHT22;14839;48.106;11.618;2024-01-30T10:04:22;13.20;56.90
27368;DHT22;14839;48.106;11.618;2024-01-30T10:06:47;12.90;56.10
27368;DHT22;14839;48.106;11.618;2024-01-30T10:09:16;13.20;55.70
27368;DHT22;14839;48.106;11.618;2024-01-30T10:11:41;13.10;55.80
27368;DHT22;14839;48.106;11.618;2024-01-30T10:14:07;13.60;56.00
27368;DHT22;14839;48.106;11.618;2024-01-30T10:16:34;13.30;54.10
27368;DHT22;14839;48.106;11.618;2024-01-30T10:19:00;13.50;54.80
27368;DHT22;14839;48.106;11.618;2024-01-30T10:21:29;13.40;56.00
27368;DHT22;14839;48.106;11.618;2024-01-30T10:23:56;14.00;52.00
27368;DHT22;14839;48.106;11.618;2024-01-30T10:26:21;14.50;51.10
27368;DHT22;14839;48.106;11.618;2024-01-30T10:28:48;14.80;49.50
27368;DHT22;14839;48.106;11.618;2024-01-30T10:31:17;14.70;51.10
27368;DHT22;14839;48.106;11.618;2024-01-30T10:33:44;14.30;52.40
27368;DHT22;14839;48.106;11.618;2024-01-30T10:36:13;14.10;53.60
27368;DHT22;14839;48.106;11.618;2024-01-30T10:38:42;14.40;50.80
27368;DHT22;14839;48.106;11.618;2024-01-30T10:41:08;14.70;51.10
27368;DHT22;14839;48.106;11.618;2024-01-30T10:43:41;15.10;48.80
27368;DHT22;14839;48.106;11.618;2024-01-30T10:46:19;14.90;47.70
27368;DHT22;14839;48.106;11.618;2024-01-30T10:48:50;14.80;49.00
27368;DHT22;14839;48.106;11.618;2024-01-30T10:51:23;14.50;49.30
27368;DHT22;14839;48.106;11.618;2024-01-30T10:53:49;14.00;51.10
27368;DHT22;14839;48.106;11.618;2024-01-30T10:56:16;13.80;53.80
27368;DHT22;14839;48.106;11.618;2024-01-30T10:58:42;13.80;51.70
27368;DHT22;14839;48.106;11.618;2024-01-30T11:01:08;13.60;54.10
27368;DHT22;14839;48.106;11.618;2024-01-30T11:03:34;13.70;50.80
27368;DHT22;14839;48.106;11.618;2024-01-30T11:06:02;13.70;50.70
27368;DHT22;14839;48.106;11.618;2024-01-30T11:08:28;13.40;53.50
27368;DHT22;14839;48.106;11.618;2024-01-30T11:10:58;13.50;52.70
27368;DHT22;14839;48.106;11.618;2024-01-30T11:13:30;13.70;52.40
27368;DHT22;14839;48.106;11.618;2024-01-30T11:16:01;13.90;49.80
27368;DHT22;14839;48.106;11.618;2024-01-30T11:18:30;13.70;51.70
27368;DHT22;14839;48.106;11.618;2024-01-30T11:20:57;14.00;49.60
27368;DHT22;14839;48.106;11.618;2024-01-30T11:23:23;14.40;50.20
27368;DHT22;14839;48.106;11.618;2024-01-30T11:25:52;14.70;48.90
27368;DHT22;14839;48.106;11.618;2024-01-30T11:28:18;14.60;48.50
27368;DHT22;14839;48.106;11.618;2024-01-30T11:30:46;14.60;47.30
27368;DHT22;14839;48.106;11.618;2024-01-30T11:33:14;14.60;49.20
27368;DHT22;14839;48.106;11.618;2024-01-30T11:35:44;14.30;47.70
27368;DHT22;14839;48.106;11.618;2024-01-30T11:38:14;14.10;49.50
27368;DHT22;14839;48.106;11.618;2024-01-30T11:40:40;14.30;48.90
27368;DHT22;14839;48.106;11.618;2024-01-30T11:43:07;14.60;48.30
27368;DHT22;14839;48.106;11.618;2024-01-30T11:45:34;15.00;47.60
27368;DHT22;14839;48.106;11.618;2024-01-30T11:48:00;15.10;47.40
27368;DHT22;14839;48.106;11.618;2024-01-30T11:50:29;15.20;46.70
27368;DHT22;14839;48.106;11.618;2024-01-30T11:52:55;15.30;46.80
27368;DHT22;14839;48.106;11.618;2024-01-30T11:55:21;15.20;46.20
27368;DHT22;14839;48.106;11.618;2024-01-30T11:57:46;14.90;47.30
27368;DHT22;14839;48.106;11.618;2024-01-30T12:00:16;14.70;47.00
27368;DHT22;14839;48.106;11.618;2024-01-30T12:02:43;14.50;47.30
27368;DHT22;14839;48.106;11.618;2024-01-30T12:05:09;14.40;49.00
27368;DHT22;14839;48.106;11.618;2024-01-30T12:07:35;14.30;49.00
27368;DHT22;14839;48.106;11.618;2024-01-30T12:10:02;14.20;48.00
27368;DHT22;14839;48.106;11.618;2024-01-30T12:12:28;14.20;47.40
27368;DHT22;14839;48.106;11.618;2024-01-30T12:14:55;14.20;48.30
27368;DHT22;14839;48.106;11.618;2024-01-30T12:17:31;14.40;46.80
27368;DHT22;14839;48.106;11.618;2024-01-30T12:20:14;14.30;47.00
27368;DHT22;14839;48.106;11.618;2024-01-30T12:22:42;14.30;47.40
27368;DHT22;14839;48.106;11.618;2024-01-30T12:25:08;14.50;46.70
27368;DHT22;14839;48.106;11.618;2024-01-30T12:27:35;14.40;45.90
27368;DHT22;14839;48.106;11.618;2024-01-30T12:30:01;14.60;47.10
27368;DHT22;14839;48.106;11.618;2024-01-30T12:32:27;14.90;46.10
27368;DHT22;14839;48.106;11.618;2024-01-30T12:34:56;14.90;45.50
27368;DHT22;14839;48.106;11.618;2024-01-30T12:37:22;14.90;45.90
27368;DHT22;14839;48.106;11.618;2024-01-30T12:39:51;14.80;45.60
27368;DHT22;14839;48.106;11.618;2024-01-30T12:42:18;14.70;45.80
27368;DHT22;14839;48.106;11.618;2024-01-30T12:44:44;14.50;44.90
27368;DHT22;14839;48.106;11.618;2024-01-30T12:47:09;14.50;45.20
27368;DHT22;14839;48.106;11.618;2024-01-30T12:49:35;14.50;45.80
27368;DHT22;14839;48.106;11.618;2024-01-30T12:52:01;14.40;45.50
27368;DHT22;14839;48.106;11.618;2024-01-30T12:54:27;14.30;46.40
27368;DHT22;14839;48.106;11.618;2024-01-30T12:56:52;14.20;46.70
27368;DHT22;14839;48.106;11.618;2024-01-30T12:59:18;14.10;46.40
27368;DHT22;14839;48.106;11.618;2024-01-30T13:01:44;14.30;45.90
27368;DHT22;14839;48.106;11.618;2024-01-30T13:04:09;14.30;46.40
27368;DHT22;14839;48.106;11.618;2024-01-30T13:06:35;14.20;46.40
27368;DHT22;14839;48.106;11.618;2024-01-30T13:09:00;14.30;45.90
27368;DHT22;14839;48.106;11.618;2024-01-30T13:11:26;14.30;45.20
27368;DHT22;14839;48.106;11.618;2024-01-30T13:13:52;14.50;45.40
27368;DHT22;14839;48.106;11.618;2024-01-30T13:16:17;14.50;44.80
27368;DHT22;14839;48.106;11.618;2024-01-30T13:18:44;14.60;43.90
27368;DHT22;14839;48.106;11.618;2024-01-30T13:21:10;14.70;43.90
27368;DHT22;14839;48.106;11.618;2024-01-30T13:23:35;14.70;44.20
27368;DHT22;14839;48.106;11.618;2024-01-30T13:26:01;14.70;44.30
27368;DHT22;14839;48.106;11.618;2024-01-30T13:28:27;14.70;44.20
27368;DHT22;14839;48.106;11.618;2024-01-30T13:30:53;14.70;45.50
27368;DHT22;14839;48.106;11.618;2024-01-30T13:33:19;14.60;44.30
27368;DHT22;14839;48.106;11.618;2024-01-30T13:35:44;14.70;43.90
27368;DHT22;14839;48.106;11.618;2024-01-30T13:38:10;14.80;43.70
27368;DHT22;14839;48.106;11.618;2024-01-30T13:40:36;14.90;43.40
27368;DHT22;14839;48.106;11.618;2024-01-30T13:43:01;14.90;43.60
27368;DHT22;14839;48.106;11.618;2024-01-30T13:45:27;14.60;44.90
27368;DHT22;14839;48.106;11.618;2024-01-30T13:47:52;14.50;45.40
27368;DHT22;14839;48.106;11.618;2024-01-30T13:50:18;14.40;45.10
27368;DHT22;14839;48.106;11.618;2024-01-30T13:52:44;14.30;45.10
27368;DHT22;14839;48.106;11.618;2024-01-30T13:55:09;14.20;46.20
27368;DHT22;14839;48.106;11.618;2024-01-30T13:57:36;14.10;45.80
27368;DHT22;14839;48.106;11.618;2024-01-30T14:00:03;14.00;45.90
27368;DHT22;14839;48.106;11.618;2024-01-30T14:02:32;13.90;45.50
27368;DHT22;14839;48.106;11.618;2024-01-30T14:04:57;13.80;45.90
27368;DHT22;14839;48.106;11.618;2024-01-30T14:07:23;13.80;45.50
27368;DHT22;14839;48.106;11.618;2024-01-30T14:09:49;13.70;45.40
27368;DHT22;14839;48.106;11.618;2024-01-30T14:12:15;13.60;46.20
27368;DHT22;14839;48.106;11.618;2024-01-30T14:14:40;13.60;46.80
27368;DHT22;14839;48.106;11.618;2024-01-30T14:17:06;13.50;46.40
27368;DHT22;14839;48.106;11.618;2024-01-30T14:19:33;13.40;46.40
27368;DHT22;14839;48.106;11.618;2024-01-30T14:21:58;13.40;47.70
27368;DHT22;14839;48.106;11.618;2024-01-30T14:24:24;13.20;47.60
27368;DHT22;14839;48.106;11.618;2024-01-30T14:26:50;13.10;48.60
27368;DHT22;14839;48.106;11.618;2024-01-30T14:29:15;13.00;49.30
27368;DHT22;14839;48.106;11.618;2024-01-30T14:31:41;12.90;49.90
27368;DHT22;14839;48.106;11.618;2024-01-30T14:34:06;12.70;49.90
27368;DHT22;14839;48.106;11.618;2024-01-30T14:36:33;12.70;50.70
27368;DHT22;14839;48.106;11.618;2024-01-30T14:38:59;12.60;50.80
27368;DHT22;14839;48.106;11.618;2024-01-30T14:41:24;12.50;51.40
27368;DHT22;14839;48.106;11.618;2024-01-30T14:43:50;12.40;52.60
27368;DHT22;14839;48.106;11.618;2024-01-30T14:46:16;12.30;53.30
27368;DHT22;14839;48.106;11.618;2024-01-30T14:48:41;12.10;53.60
27368;DHT22;14839;48.106;11.618;2024-01-30T14:51:08;12.10;53.90
27368;DHT22;14839;48.106;11.618;2024-01-30T14:53:34;12.00;54.10
27368;DHT22;14839;48.106;11.618;2024-01-30T14:55:59;12.00;54.40
27368;DHT22;14839;48.106;11.618;2024-01-30T14:58:25;11.90;55.10
27368;DHT22;14839;48.106;11.618;2024-01-30T15:00:51;11.80;55.50
27368;DHT22;14839;48.106;11.618;2024-01-30T15:03:16;11.80;55.30
27368;DHT22;14839;48.106;11.618;2024-01-30T15:05:42;11.80;56.10
27368;DHT22;14839;48.106;11.618;2024-01-30T15:08:07;11.80;56.10
27368;DHT22;14839;48.106;11.618;2024-01-30T15:10:33;11.70;56.90
27368;DHT22;14839;48.106;11.618;2024-01-30T15:12:58;11.70;59.10
27368;DHT22;14839;48.106;11.618;2024-01-30T15:15:24;11.60;59.10
27368;DHT22;14839;48.106;11.618;2024-01-30T15:17:49;11.50;59.50
27368;DHT22;14839;48.106;11.618;2024-01-30T15:20:15;11.40;59.80
27368;DHT22;14839;48.106;11.618;2024-01-30T15:22:43;11.40;59.70
27368;DHT22;14839;48.106;11.618;2024-01-30T15:25:10;11.20;59.80
27368;DHT22;14839;48.106;11.618;2024-01-30T15:27:36;11.10;60.50
27368;DHT22;14839;48.106;11.618;2024-01-30T15:30:02;11.00;60.40
27368;DHT22;14839;48.106;11.618;2024-01-30T15:32:28;10.90;61.00
27368;DHT22;14839;48.106;11.618;2024-01-30T15:34:53;10.80;61.10
27368;DHT22;14839;48.106;11.618;2024-01-30T15:37:20;10.70;61.90
27368;DHT22;14839;48.106;11.618;2024-01-30T15:39:45;10.60;62.00
27368;DHT22;14839;48.106;11.618;2024-01-30T15:42:11;10.50;61.70
27368;DHT22;14839;48.106;11.618;2024-01-30T15:44:36;10.40;65.20
27368;DHT22;14839;48.106;11.618;2024-01-30T15:47:02;10.20;65.30
27368;DHT22;14839;48.106;11.618;2024-01-30T15:49:27;10.10;65.60
27368;DHT22;14839;48.106;11.618;2024-01-30T15:51:53;9.90;66.20
27368;DHT22;14839;48.106;11.618;2024-01-30T15:54:18;9.80;66.80
27368;DHT22;14839;48.106;11.618;2024-01-30T15:56:45;9.60;68.50
27368;DHT22;14839;48.106;11.618;2024-01-30T15:59:11;9.50;68.00
27368;DHT22;14839;48.106;11.618;2024-01-30T16:01:36;9.30;69.10
27368;DHT22;14839;48.106;11.618;2024-01-30T16:04:02;9.10;69.70
27368;DHT22;14839;48.106;11.618;2024-01-30T16:06:28;8.90;70.40
27368;DHT22;14839;48.106;11.618;2024-01-30T16:08:53;8.70;71.60
27368;DHT22;14839;48.106;11.618;2024-01-30T16:11:19;8.50;72.80
27368;DHT22;14839;48.106;11.618;2024-01-30T16:13:44;8.30;74.00
27368;DHT22;14839;48.106;11.618;2024-01-30T16:16:10;8.10;75.40
27368;DHT22;14839;48.106;11.618;2024-01-30T16:18:36;7.90;76.10
27368;DHT22;14839;48.106;11.618;2024-01-30T16:21:02;7.80;77.00
27368;DHT22;14839;48.106;11.618;2024-01-30T16:23:27;7.60;78.20
27368;DHT22;14839;48.106;11.618;2024-01-30T16:25:53;7.40;78.50
27368;DHT22;14839;48.106;11.618;2024-01-30T16:28:23;7.30;79.10
27368;DHT22;14839;48.106;11.618;2024-01-30T16:30:49;7.10;79.70
27368;DHT22;14839;48.106;11.618;2024-01-30T16:33:14;7.00;80.50
27368;DHT22;14839;48.106;11.618;2024-01-30T16:35:40;6.80;81.10
27368;DHT22;14839;48.106;11.618;2024-01-30T16:38:07;6.60;81.80
27368;DHT22;14839;48.106;11.618;2024-01-30T16:40:32;6.50;82.00
27368;DHT22;14839;48.106;11.618;2024-01-30T16:42:59;6.40;82.60
27368;DHT22;14839;48.106;11.618;2024-01-30T16:45:24;6.20;83.50
27368;DHT22;14839;48.106;11.618;2024-01-30T16:47:50;6.10;83.90
27368;DHT22;14839;48.106;11.618;2024-01-30T16:50:16;6.00;84.80
27368;DHT22;14839;48.106;11.618;2024-01-30T16:52:41;5.90;85.00
27368;DHT22;14839;48.106;11.618;2024-01-30T16:55:08;5.80;85.40
27368;DHT22;14839;48.106;11.618;2024-01-30T16:57:33;5.70;85.90
27368;DHT22;14839;48.106;11.618;2024-01-30T16:59:59;5.60;86.20
27368;DHT22;14839;48.106;11.618;2024-01-30T17:02:24;5.50;86.60
27368;DHT22;14839;48.106;11.618;2024-01-30T17:04:51;5.40;86.90
27368;DHT22;14839;48.106;11.618;2024-01-30T17:07:17;5.30;87.20
27368;DHT22;14839;48.106;11.618;2024-01-30T17:09:42;5.20;87.40
27368;DHT22;14839;48.106;11.618;2024-01-30T17:12:08;5.20;88.00
27368;DHT22;14839;48.106;11.618;2024-01-30T17:14:34;5.10;88.30
27368;DHT22;14839;48.106;11.618;2024-01-30T17:17:04;5.00;88.60
27368;DHT22;14839;48.106;11.618;2024-01-30T17:19:30;4.90;89.20
27368;DHT22;14839;48.106;11.618;2024-01-30T17:21:55;4.90;89.80
27368;DHT22;14839;48.106;11.618;2024-01-30T17:24:21;4.80;90.20
27368;DHT22;14839;48.106;11.618;2024-01-30T17:26:47;4.80;90.60
27368;DHT22;14839;48.106;11.618;2024-01-30T17:29:15;4.70;90.80
27368;DHT22;14839;48.106;11.618;2024-01-30T17:31:40;4.70;90.90
27368;DHT22;14839;48.106;11.618;2024-01-30T17:34:09;4.60;91.00
27368;DHT22;14839;48.106;11.618;2024-01-30T17:36:35;4.50;91.30
27368;DHT22;14839;48.106;11.618;2024-01-30T17:39:01;4.40;91.40
27368;DHT22;14839;48.106;11.618;2024-01-30T17:41:26;4.40;91.70
27368;DHT22;14839;48.106;11.618;2024-01-30T17:43:52;4.40;91.90
27368;DHT22;14839;48.106;11.618;2024-01-30T17:46:17;4.30;92.30
27368;DHT22;14839;48.106;11.618;2024-01-30T17:48:43;4.30;92.50
27368;DHT22;14839;48.106;11.618;2024-01-30T17:51:09;4.20;92.60
27368;DHT22;14839;48.106;11.618;2024-01-30T17:53:35;4.20;92.50
27368;DHT22;14839;48.106;11.618;2024-01-30T17:56:00;4.10;92.80
27368;DHT22;14839;48.106;11.618;2024-01-30T17:58:30;4.00;93.30
27368;DHT22;14839;48.106;11.618;2024-01-30T18:00:56;4.00;93.20
27368;DHT22;14839;48.106;11.618;2024-01-30T18:03:23;3.90;93.10
27368;DHT22;14839;48.106;11.618;2024-01-30T18:05:48;3.90;93.30
27368;DHT22;14839;48.106;11.618;2024-01-30T18:08:14;3.90;93.30
27368;DHT22;14839;48.106;11.618;2024-01-30T18:10:39;3.80;93.40
27368;DHT22;14839;48.106;11.618;2024-01-30T18:13:05;3.70;93.70
27368;DHT22;14839;48.106;11.618;2024-01-30T18:15:31;3.70;94.20
27368;DHT22;14839;48.106;11.618;2024-01-30T18:17:57;3.60;94.20
27368;DHT22;14839;48.106;11.618;2024-01-30T18:20:22;3.60;94.40
27368;DHT22;14839;48.106;11.618;2024-01-30T18:22:48;3.50;94.60
27368;DHT22;14839;48.106;11.618;2024-01-30T18:25:13;3.50;94.60
27368;DHT22;14839;48.106;11.618;2024-01-30T18:27:39;3.40;94.60
27368;DHT22;14839;48.106;11.618;2024-01-30T18:30:05;3.40;94.60
27368;DHT22;14839;48.106;11.618;2024-01-30T18:32:31;3.30;94.60
27368;DHT22;14839;48.106;11.618;2024-01-30T18:34:56;3.30;94.60
27368;DHT22;14839;48.106;11.618;2024-01-30T18:37:22;3.30;94.60
27368;DHT22;14839;48.106;11.618;2024-01-30T18:39:48;3.30;94.60
27368;DHT22;14839;48.106;11.618;2024-01-30T18:42:13;3.30;94.60
27368;DHT22;14839;48.106;11.618;2024-01-30T18:44:39;3.30;94.60
27368;DHT22;14839;48.106;11.618;2024-01-30T18:47:04;3.30;94.60
27368;DHT22;14839;48.106;11.618;2024-01-30T18:49:30;3.30;94.60
27368;DHT22;14839;48.106;11.618;2024-01-30T18:51:55;3.30;94.60
27368;DHT22;14839;48.106;11.618;2024-01-30T18:54:25;3.30;94.60
27368;DHT22;14839;48.106;11.618;2024-01-30T18:56:51;3.30;94.60
27368;DHT22;14839;48.106;11.618;2024-01-30T18:59:17;3.30;94.60
27368;DHT22;14839;48.106;11.618;2024-01-30T19:01:46;3.20;94.60
27368;DHT22;14839;48.106;11.618;2024-01-30T19:04:12;3.20;94.60
27368;DHT22;14839;48.106;11.618;2024-01-30T19:06:38;3.20;94.60
27368;DHT22;14839;48.106;11.618;2024-01-30T19:09:04;3.20;94.60
27368;DHT22;14839;48.106;11.618;2024-01-30T19:11:36;3.10;94.60
27368;DHT22;14839;48.106;11.618;2024-01-30T19:14:02;3.20;94.60
27368;DHT22;14839;48.106;11.618;2024-01-30T19:16:27;3.10;94.60
27368;DHT22;14839;48.106;11.618;2024-01-30T19:18:53;3.10;94.60
27368;DHT22;14839;48.106;11.618;2024-01-30T19:21:18;3.20;94.60
27368;DHT22;14839;48.106;11.618;2024-01-30T19:23:44;3.20;94.60
27368;DHT22;14839;48.106;11.618;2024-01-30T19:26:09;3.20;94.60
27368;DHT22;14839;48.106;11.618;2024-01-30T19:28:35;3.20;94.60
27368;DHT22;14839;48.106;11.618;2024-01-30T19:31:02;3.20;94.60
27368;DHT22;14839;48.106;11.618;2024-01-30T19:33:28;3.10;94.60
27368;DHT22;14839;48.106;11.618;2024-01-30T19:35:53;3.20;94.60
27368;DHT22;14839;48.106;11.618;2024-01-30T19:38:19;3.20;94.60
27368;DHT22;14839;48.106;11.618;2024-01-30T19:40:45;3.20;94.60
27368;DHT22;14839;48.106;11.618;2024-01-30T19:43:10;3.30;94.60
27368;DHT22;14839;48.106;11.618;2024-01-30T19:45:36;3.30;94.60
27368;DHT22;14839;48.106;11.618;2024-01-30T19:48:02;3.40;94.60
27368;DHT22;14839;48.106;11.618;2024-01-30T19:50:27;3.40;94.60
27368;DHT22;14839;48.106;11.618;2024-01-30T19:52:53;3.50;94.60
27368;DHT22;14839;48.106;11.618;2024-01-30T19:55:18;3.50;94.60
27368;DHT22;14839;48.106;11.618;2024-01-30T19:57:44;3.50;94.60
27368;DHT22;14839;48.106;11.618;2024-01-30T20:00:10;3.50;94.60
27368;DHT22;14839;48.106;11.618;2024-01-30T20:02:38;3.50;94.60
27368;DHT22;14839;48.106;11.618;2024-01-30T20:05:04;3.50;94.60
27368;DHT22;14839;48.106;11.618;2024-01-30T20:07:30;3.50;94.60
27368;DHT22;14839;48.106;11.618;2024-01-30T20:09:55;3.40;94.60
27368;DHT22;14839;48.106;11.618;2024-01-30T20:12:21;3.50;94.60
27368;DHT22;14839;48.106;11.618;2024-01-30T20:14:46;3.50;94.60
27368;DHT22;14839;48.106;11.618;2024-01-30T20:17:12;3.40;94.60